Time;durP1;ratioP1;P1;durP2;ratioP2;P2;SDS_P1;SDS_P2;PMS_P1;PMS_P2;Temp;Humidity;BMP_temperature;BMP_pressure;BME280_temperature;BME280_humidity;BME280_pressure;Samples;Min_cycle;Max_cycle;Signal;HPM_P1;HPM_P2
2021/04/21 00:01:01;;;;;;;38.72;24.42;;;5.50;99.90;;;;;;5035537;28;20129;-86
2021/04/21 00:03:30;;;;;;;37.72;24.45;;;5.50;99.90;;;;;;5034184;28;20482;-86
2021/04/21 00:05:59;;;;;;;36.17;24.25;;;5.50;99.90;;;;;;5017871;28;20049;-86
2021/04/21 00:08:27;;;;;;;36.53;24.35;;;5.40;99.90;;;;;;5035153;28;20076;-86
2021/04/21 00:10:54;;;;;;;39.13;24.55;;;5.40;99.90;;;;;;5017632;28;20072;-86
2021/04/21 00:13:22;;;;;;;35.38;23.65;;;5.30;99.90;;;;;;5033260;28;20470;-86
2021/04/21 00:15:51;;;;;;;37.30;23.10;;;5.30;99.90;;;;;;5017954;28;20092;-86
2021/04/21 00:18:19;;;;;;;39.50;24.92;;;5.30;99.90;;;;;;5035140;28;20075;-84
2021/04/21 00:21:00;;;;;;;40.40;25.02;;;5.30;99.90;;;;;;5035100;28;20088;-86
2021/04/21 00:23:28;;;;;;;39.10;25.73;;;5.20;99.90;;;;;;5012801;28;20053;-86
2021/04/21 00:25:57;;;;;;;41.28;26.55;;;5.30;99.90;;;;;;5038288;28;20095;-84
2021/04/21 00:28:28;;;;;;;42.03;25.27;;;5.30;99.90;;;;;;5021923;28;20136;-85
2021/04/21 00:30:58;;;;;;;41.70;26.60;;;5.30;99.90;;;;;;5037693;28;20068;-86
2021/04/21 00:33:25;;;;;;;39.50;26.02;;;5.30;99.90;;;;;;5007726;28;20153;-86
2021/04/21 00:35:53;;;;;;;44.13;27.05;;;5.30;99.90;;;;;;5022765;28;20128;-87
2021/04/21 00:38:23;;;;;;;36.95;23.65;;;5.20;99.90;;;;;;5033785;28;20129;-86
2021/04/21 00:40:57;;;;;;;32.63;22.17;;;5.10;99.90;;;;;;5017686;28;20087;-86
2021/04/21 00:43:28;;;;;;;39.28;25.13;;;5.00;99.90;;;;;;5027039;28;20463;-86
2021/04/21 00:46:02;;;;;;;39.75;25.92;;;4.90;99.90;;;;;;5014194;28;20416;-86
2021/04/21 00:48:40;;;;;;;38.03;22.73;;;4.80;99.90;;;;;;5034644;28;20132;-85
2021/04/21 00:51:13;;;;;;;29.65;19.92;;;4.70;99.90;;;;;;5035367;28;20077;-85
2021/04/21 00:53:49;;;;;;;37.42;21.30;;;4.60;99.90;;;;;;5015504;28;20132;-86
2021/04/21 00:56:42;;;;;;;39.92;25.02;;;4.60;99.90;;;;;;5035358;28;20132;-86
2021/04/21 00:59:30;;;;;;;39.70;25.25;;;4.60;99.90;;;;;;5034164;28;20054;-85
2021/04/21 01:01:57;;;;;;;42.63;25.45;;;4.60;99.90;;;;;;5031966;28;20128;-86
2021/04/21 01:04:25;;;;;;;36.13;23.98;;;4.60;99.90;;;;;;5032334;28;20057;-85
2021/04/21 01:06:53;;;;;;;39.83;24.95;;;4.60;99.90;;;;;;5034592;28;20385;-86
2021/04/21 01:09:23;;;;;;;44.50;27.23;;;4.60;99.90;;;;;;5031299;28;20169;-85
2021/04/21 01:11:50;;;;;;;43.22;27.52;;;4.50;99.90;;;;;;5032620;28;20057;-85
2021/04/21 01:14:23;;;;;;;46.15;28.27;;;4.40;99.90;;;;;;5014765;28;20107;-85
2021/04/21 01:17:05;;;;;;;41.47;27.38;;;4.40;99.90;;;;;;5034511;28;20079;-86
2021/04/21 01:19:59;;;;;;;46.30;29.20;;;4.40;99.90;;;;;;5014189;28;20458;-85
2021/04/21 01:23:35;;;;;;;42.70;27.00;;;4.30;99.90;;;;;;5034498;28;20056;-87
2021/04/21 01:26:39;;;;;;;41.83;26.33;;;4.30;99.90;;;;;;4951447;28;20461;-86
2021/04/21 01:29:07;;;;;;;43.83;26.48;;;4.20;99.90;;;;;;4956360;28;20126;-83
2021/04/21 01:31:37;;;;;;;40.45;25.50;;;4.20;99.90;;;;;;5027361;28;20063;-87
2021/04/21 01:34:07;;;;;;;42.20;27.38;;;4.20;99.90;;;;;;5033547;28;20114;-88
2021/04/21 01:36:35;;;;;;;40.15;25.35;;;4.20;99.90;;;;;;5029745;28;20050;-87
2021/04/21 01:39:05;;;;;;;43.92;26.75;;;4.20;99.90;;;;;;5033211;28;20080;-88
2021/04/21 01:41:38;;;;;;;45.45;26.90;;;4.20;99.90;;;;;;5032821;28;20485;-88
2021/04/21 01:44:13;;;;;;;;;;;4.10;99.90;;;;;;5034159;28;20045;-88
2021/04/21 01:46:45;;;;;;;46.08;28.88;;;4.00;99.90;;;;;;5032927;28;20315;-87
2021/04/21 01:49:34;;;;;;;46.97;29.05;;;4.00;99.90;;;;;;5033697;28;20057;-87
2021/04/21 01:52:22;;;;;;;47.85;29.48;;;4.00;99.90;;;;;;5007911;28;20046;-87
2021/04/21 01:54:56;;;;;;;42.08;27.08;;;4.10;99.90;;;;;;5015390;28;20232;-87
2021/04/21 01:57:38;;;;;;;46.03;28.17;;;4.10;99.90;;;;;;5021734;28;20124;-88
2021/04/21 02:00:10;;;;;;;46.38;29.30;;;4.10;99.90;;;;;;5032351;28;20041;-87
2021/04/21 02:02:39;;;;;;;;;;;4.10;99.90;;;;;;5022983;28;20060;-86
2021/04/21 02:05:29;;;;;;;51.50;29.90;;;4.10;99.90;;;;;;5015835;28;19928;-86
2021/04/21 02:08:20;;;;;;;49.67;29.08;;;4.20;99.90;;;;;;5028411;28;20072;-87
2021/04/21 02:11:17;;;;;;;51.22;29.15;;;4.10;99.90;;;;;;5025253;28;20041;-87
2021/04/21 02:14:01;;;;;;;54.92;30.63;;;4.10;99.90;;;;;;4998750;28;20110;-87
2021/04/21 02:16:56;;;;;;;48.33;29.90;;;4.10;99.90;;;;;;5031585;28;20455;-87
2021/04/21 02:19:30;;;;;;;51.42;29.25;;;4.20;99.90;;;;;;5028206;28;20045;-87
2021/04/21 02:22:14;;;;;;;48.67;27.70;;;4.20;99.90;;;;;;5033388;28;20115;-86
2021/04/21 02:24:56;;;;;;;41.47;25.30;;;4.20;99.90;;;;;;5032179;28;20053;-88
2021/04/21 02:27:51;;;;;;;40.67;26.63;;;4.10;99.90;;;;;;5017419;28;20343;-86
2021/04/21 02:30:39;;;;;;;41.97;26.83;;;4.20;99.90;;;;;;5010533;28;20045;-87
2021/04/21 02:33:50;;;;;;;50.47;29.02;;;4.10;99.90;;;;;;5033115;28;20132;-87
2021/04/21 02:36:30;;;;;;;48.08;28.15;;;4.00;99.90;;;;;;5009446;28;20493;-87
2021/04/21 02:39:11;;;;;;;46.70;29.95;;;4.00;99.90;;;;;;5022688;28;20055;-86
2021/04/21 02:42:04;;;;;;;45.85;29.05;;;3.90;99.90;;;;;;5015048;28;20475;-87
2021/04/21 02:44:55;;;;;;;47.92;27.35;;;3.90;99.90;;;;;;5031712;28;20064;-86
2021/04/21 02:47:29;;;;;;;44.50;27.02;;;3.80;99.90;;;;;;5029295;28;20138;-87
2021/04/21 02:50:49;;;;;;;44.33;27.10;;;3.80;99.90;;;;;;5032197;28;20053;-87
2021/04/21 02:53:40;;;;;;;48.08;28.98;;;3.70;99.90;;;;;;4992180;28;20144;-87
2021/04/21 02:56:26;;;;;;;48.30;29.15;;;3.70;99.90;;;;;;5007230;28;20362;-88
2021/04/21 02:59:34;;;;;;;53.20;31.95;;;3.70;99.90;;;;;;5029920;28;20041;-87
2021/04/21 03:02:24;;;;;;;54.72;30.35;;;3.70;99.90;;;;;;5028521;28;20073;-87
2021/04/21 03:05:14;;;;;;;42.53;26.92;;;3.70;99.90;;;;;;5024305;28;20054;-87
2021/04/21 03:08:03;;;;;;;49.38;30.25;;;3.70;99.90;;;;;;5013144;28;20080;-86
2021/04/21 03:11:03;;;;;;;47.85;30.55;;;3.70;99.90;;;;;;5030184;28;20049;-87
2021/04/21 03:13:33;;;;;;;63.30;31.40;;;3.70;99.90;;;;;;5025302;28;20449;-88
2021/04/21 03:16:06;;;;;;;47.80;27.77;;;3.70;99.90;;;;;;5032370;28;20144;-87
2021/04/21 03:18:33;;;;;;;48.35;26.67;;;3.70;99.90;;;;;;5010049;28;20467;-87
2021/04/21 03:21:12;;;;;;;41.65;26.30;;;3.60;99.90;;;;;;5031824;28;20320;-88
2021/04/21 03:23:42;;;;;;;46.90;26.80;;;3.50;99.90;;;;;;5031322;28;20423;-87
2021/04/21 03:26:11;;;;;;;49.17;28.70;;;3.50;99.90;;;;;;5032285;28;20077;-87
2021/04/21 03:28:43;;;;;;;45.53;28.52;;;3.40;99.90;;;;;;5010288;28;20478;-87
2021/04/21 03:31:12;;;;;;;43.10;27.73;;;3.30;99.90;;;;;;5022402;28;20056;-87
2021/04/21 03:34:00;;;;;;;46.22;27.63;;;3.30;99.90;;;;;;5031686;28;20042;-88
2021/04/21 03:36:28;;;;;;;49.10;28.23;;;3.20;99.90;;;;;;5013002;28;20048;-87
2021/04/21 03:38:56;;;;;;;52.70;30.77;;;3.10;99.90;;;;;;5032079;28;20042;-87
2021/04/21 03:41:23;;;;;;;49.92;30.13;;;3.10;99.90;;;;;;5032172;28;20060;-87
2021/04/21 03:43:50;;;;;;;47.30;27.25;;;3.10;99.90;;;;;;5033623;28;20045;-87
2021/04/21 03:46:17;;;;;;;43.17;26.65;;;3.10;99.90;;;;;;5029825;28;20131;-87
2021/04/21 03:48:45;;;;;;;42.78;25.73;;;3.00;99.90;;;;;;5015890;28;20140;-87
2021/04/21 03:51:13;;;;;;;45.53;27.27;;;2.90;99.90;;;;;;5035142;28;20053;-87
2021/04/21 03:53:42;;;;;;;44.38;28.20;;;2.80;99.90;;;;;;5033658;28;20451;-86
2021/04/21 03:56:18;;;;;;;49.75;29.30;;;2.70;99.90;;;;;;5035938;28;20056;-87
2021/04/21 03:58:48;;;;;;;56.80;30.33;;;2.70;99.90;;;;;;5011189;28;20471;-87
2021/04/21 04:01:18;;;;;;;59.03;33.17;;;2.60;99.90;;;;;;5035107;28;20515;-87
2021/04/21 04:03:52;;;;;;;51.58;31.20;;;2.70;99.90;;;;;;5034700;28;20392;-87
2021/04/21 04:06:49;;;;;;;59.28;34.50;;;2.70;99.90;;;;;;5019139;28;20045;-87
2021/04/21 04:09:23;;;;;;;66.22;36.55;;;2.70;99.90;;;;;;5029396;28;20460;-87
2021/04/21 04:12:01;;;;;;;66.57;38.10;;;2.80;99.90;;;;;;5036544;28;20128;-88
2021/04/21 04:14:31;;;;;;;73.15;36.78;;;2.80;99.90;;;;;;5034613;28;20050;-88
2021/04/21 04:17:00;;;;;;;71.43;38.13;;;2.80;99.90;;;;;;5018213;28;20558;-87
2021/04/21 04:19:33;;;;;;;68.47;39.53;;;2.80;99.90;;;;;;5034862;28;20065;-87
2021/04/21 04:22:07;;;;;;;78.18;43.08;;;2.70;99.90;;;;;;5035826;28;20049;-87
2021/04/21 04:24:47;;;;;;;77.43;39.88;;;2.80;99.90;;;;;;5033820;28;20100;-86
2021/04/21 04:28:08;;;;;;;66.95;37.97;;;2.70;99.90;;;;;;5017648;28;20474;-86
2021/04/21 04:30:39;;;;;;;60.25;34.72;;;2.70;99.90;;;;;;5031162;28;20045;-89
2021/04/21 04:33:08;;;;;;;61.03;34.35;;;2.70;99.90;;;;;;5034303;28;20348;-85
2021/04/21 04:35:36;;;;;;;60.83;34.28;;;2.70;99.90;;;;;;5034106;28;20087;-86
2021/04/21 04:38:04;;;;;;;61.22;34.25;;;2.70;99.90;;;;;;5032040;28;20050;-86
2021/04/21 04:40:32;;;;;;;62.53;35.70;;;2.70;99.90;;;;;;5012121;28;20071;-88
2021/04/21 04:46:33;;;;;;;65.82;35.67;;;2.70;99.90;;;;;;5012959;28;20049;-85
2021/04/21 04:49:08;;;;;;;61.70;35.38;;;2.70;99.90;;;;;;5010423;28;20064;-86
2021/04/21 04:51:38;;;;;;;59.75;34.60;;;2.80;99.90;;;;;;5021561;28;20140;-86
2021/04/21 04:54:05;;;;;;;58.13;34.63;;;2.80;99.90;;;;;;5012878;28;20121;-89
2021/04/21 04:56:35;;;;;;;67.53;36.25;;;2.80;99.90;;;;;;5033160;28;20711;-88
2021/04/21 04:59:03;;;;;;;57.08;32.78;;;2.80;99.90;;;;;;5012977;28;20081;-84
2021/04/21 05:01:52;;;;;;;58.67;34.42;;;2.80;99.90;;;;;;5011221;28;20059;-84
2021/04/21 05:04:25;;;;;;;59.13;34.30;;;2.70;99.90;;;;;;5017064;28;20111;-84
2021/04/21 05:06:59;;;;;;;60.85;35.10;;;2.80;99.90;;;;;;5035408;28;20093;-84
2021/04/21 05:09:29;;;;;;;65.40;36.47;;;2.80;99.90;;;;;;5006665;28;20410;-85
2021/04/21 05:12:01;;;;;;;66.80;38.78;;;2.90;99.90;;;;;;5030134;28;20141;-84
2021/04/21 05:14:31;;;;;;;72.35;37.90;;;3.00;99.90;;;;;;5031892;28;20148;-84
2021/04/21 05:17:00;;;;;;;69.82;39.50;;;3.20;99.90;;;;;;5033616;28;20221;-84
2021/04/21 05:19:58;;;;;;;66.50;39.08;;;3.30;99.90;;;;;;5033548;28;20107;-84
2021/04/21 05:22:44;;;;;;;67.63;36.03;;;3.50;99.90;;;;;;4960688;28;20051;-84
2021/04/21 05:25:44;;;;;;;59.53;35.15;;;3.60;99.90;;;;;;5024699;28;20053;-84
2021/04/21 05:28:44;;;;;;;68.32;39.50;;;3.70;99.90;;;;;;5008831;28;20072;-83
2021/04/21 05:31:46;;;;;;;64.60;36.95;;;3.90;99.90;;;;;;5024373;28;20530;-88
2021/04/21 05:34:24;;;;;;;61.42;37.13;;;4.10;99.90;;;;;;5007494;28;20442;-87
2021/04/21 05:37:40;;;;;;;61.83;34.97;;;4.20;99.90;;;;;;5029351;28;20057;-87
2021/04/21 05:40:14;;;;;;;45.40;31.27;;;4.40;99.90;;;;;;5013303;28;20119;-87
2021/04/21 05:43:18;;;;;;;53.15;30.40;;;4.60;99.90;;;;;;5018661;28;20087;-88
2021/04/21 05:46:16;;;;;;;45.10;29.55;;;4.70;99.90;;;;;;5022706;28;20120;-87
2021/04/21 05:49:12;;;;;;;46.33;29.70;;;4.80;99.90;;;;;;5035750;28;20056;-90
2021/04/21 05:52:03;;;;;;;45.90;28.77;;;5.10;99.90;;;;;;5022054;28;20493;-89
2021/04/21 05:54:35;;;;;;;42.65;27.83;;;5.30;99.90;;;;;;5022857;28;20042;-89
2021/04/21 05:57:48;;;;;;;42.05;26.55;;;5.70;99.90;;;;;;5020330;28;20384;-88
2021/04/21 06:00:39;;;;;;;37.92;25.92;;;6.00;99.90;;;;;;5029542;28;20138;-90
2021/04/21 06:03:06;;;;;;;38.05;25.98;;;6.50;99.90;;;;;;5020827;28;20061;-89
2021/04/21 06:05:35;;;;;;;42.08;26.75;;;6.70;99.90;;;;;;5012311;28;20132;-90
2021/04/21 06:08:14;;;;;;;40.90;26.88;;;6.80;99.90;;;;;;5014454;28;20132;-90
2021/04/21 06:10:41;;;;;;;39.42;26.67;;;6.90;99.90;;;;;;5027469;28;20045;-91
2021/04/21 06:13:10;;;;;;;40.58;25.27;;;7.00;99.90;;;;;;5013445;28;20064;-90
2021/04/21 06:15:40;;;;;;;39.15;24.95;;;7.00;99.90;;;;;;5028830;28;20446;-89
2021/04/21 06:18:12;;;;;;;42.83;24.98;;;7.20;99.90;;;;;;5012063;28;20037;-90
2021/04/21 06:20:40;;;;;;;34.45;23.35;;;7.50;99.90;;;;;;5029241;28;20069;-93
2021/04/21 06:23:15;;;;;;;32.83;24.38;;;7.90;99.90;;;;;;5031359;28;20111;-90
2021/04/21 06:25:44;;;;;;;34.25;22.35;;;8.40;99.90;;;;;;5029071;28;20398;-90
2021/04/21 06:28:20;;;;;;;36.80;22.65;;;8.90;99.90;;;;;;5014905;28;20115;-89
2021/04/21 06:31:05;;;;;;;29.58;20.88;;;9.20;99.90;;;;;;5014591;28;20099;-90
2021/04/21 06:33:36;;;;;;;33.17;21.63;;;9.60;99.90;;;;;;5028794;28;20136;-90
2021/04/21 06:36:07;;;;;;;27.48;20.67;;;10.00;99.90;;;;;;5014507;28;20431;-91
2021/04/21 06:38:36;;;;;;;28.73;21.10;;;10.50;99.90;;;;;;5014559;28;20115;-90
2021/04/21 06:41:05;;;;;;;29.38;21.13;;;10.90;99.90;;;;;;5003434;28;20041;-90
2021/04/21 06:43:37;;;;;;;26.02;19.35;;;11.40;99.90;;;;;;5012751;28;20049;-89
2021/04/21 06:46:10;;;;;;;31.75;21.35;;;11.70;99.90;;;;;;5030880;28;20057;-91
2021/04/21 06:48:39;;;;;;;28.70;21.23;;;11.90;97.70;;;;;;5018350;28;20049;-91
2021/04/21 06:51:10;;;;;;;28.40;21.52;;;12.00;98.00;;;;;;5016245;28;20127;-91
2021/04/21 06:53:37;;;;;;;31.05;23.02;;;12.20;95.30;;;;;;5013881;28;20393;-90
2021/04/21 06:56:06;;;;;;;29.33;21.92;;;12.20;95.50;;;;;;5031819;28;20052;-89
2021/04/21 06:58:37;;;;;;;29.50;21.65;;;12.10;94.60;;;;;;5015316;28;20061;-89
2021/04/21 07:01:14;;;;;;;30.70;21.57;;;12.20;94.10;;;;;;5009417;28;20447;-89
2021/04/21 07:03:42;;;;;;;32.38;23.13;;;12.40;94.80;;;;;;5010838;28;20092;-89
2021/04/21 07:06:09;;;;;;;29.67;22.15;;;12.80;94.60;;;;;;5009330;28;20053;-90
2021/04/21 07:08:40;;;;;;;33.67;23.23;;;13.20;91.20;;;;;;5002475;28;20155;-90
2021/04/21 07:11:17;;;;;;;33.15;22.70;;;13.50;88.70;;;;;;5017508;28;20053;-88
2021/04/21 07:13:49;;;;;;;32.10;22.95;;;13.70;86.40;;;;;;5006746;28;20053;-87
2021/04/21 07:16:22;;;;;;;31.33;21.67;;;13.90;85.50;;;;;;5029211;28;20108;-88
2021/04/21 07:18:55;;;;;;;27.13;21.38;;;14.30;82.30;;;;;;5010158;28;20522;-89
2021/04/21 07:21:23;;;;;;;26.90;21.27;;;14.80;77.10;;;;;;5010527;28;20129;-90
2021/04/21 07:23:55;;;;;;;28.48;21.13;;;15.00;74.50;;;;;;5026733;28;20053;-88
2021/04/21 07:26:35;;;;;;;28.58;21.25;;;15.30;73.90;;;;;;5033984;28;20045;-92
2021/04/21 07:29:01;;;;;;;28.42;22.08;;;15.60;71.00;;;;;;5030002;28;20082;-89
2021/04/21 07:31:31;;;;;;;29.08;21.58;;;15.50;72.00;;;;;;5034022;28;20103;-90
2021/04/21 07:34:30;;;;;;;27.27;21.58;;;15.50;71.60;;;;;;5021064;28;20211;-89
2021/04/21 07:37:00;;;;;;;27.05;22.02;;;15.50;68.80;;;;;;5030519;28;20050;-91
2021/04/21 07:39:39;;;;;;;25.88;20.85;;;15.50;70.00;;;;;;5035347;28;20049;-92
2021/04/21 07:42:22;;;;;;;28.95;21.70;;;16.00;74.80;;;;;;5043216;28;20430;-92
2021/04/21 07:44:55;;;;;;;25.77;20.67;;;16.90;65.80;;;;;;5024839;28;20037;-92
2021/04/21 07:47:35;;;;;;;28.40;21.13;;;17.40;62.20;;;;;;5040088;28;20053;-92
2021/04/21 07:50:04;;;;;;;26.40;20.40;;;17.40;60.80;;;;;;5040087;28;20504;-90
2021/04/21 07:52:35;;;;;;;23.98;19.48;;;17.40;60.20;;;;;;5024024;28;20068;-92
2021/04/21 07:55:19;;;;;;;26.30;21.20;;;17.60;58.20;;;;;;5040390;28;20045;-91
2021/04/21 07:58:06;;;;;;;25.60;20.27;;;17.60;58.90;;;;;;5035200;28;20105;-89
2021/04/21 08:00:38;;;;;;;26.60;20.85;;;17.60;58.50;;;;;;5018128;28;20053;-90
2021/04/21 08:03:04;;;;;;;25.67;20.70;;;17.30;58.50;;;;;;5034159;28;20347;-90
2021/04/21 08:05:31;;;;;;;25.27;20.67;;;17.50;58.50;;;;;;5039108;28;20049;-92
2021/04/21 08:08:02;;;;;;;24.85;19.20;;;17.50;57.50;;;;;;5040614;28;20084;-92
2021/04/21 08:10:34;;;;;;;26.75;20.08;;;17.80;56.60;;;;;;5020606;28;20049;-90
2021/04/21 08:13:02;;;;;;;23.75;19.10;;;18.30;54.90;;;;;;5041725;28;20049;-91
2021/04/21 08:15:37;;;;;;;30.10;19.60;;;18.30;54.50;;;;;;5046324;28;20172;-92
2021/04/21 08:18:07;;;;;;;23.77;19.00;;;18.30;54.30;;;;;;5041766;28;20118;-92
2021/04/21 08:20:52;;;;;;;23.90;17.13;;;18.80;53.90;;;;;;5022529;28;20437;-92
2021/04/21 08:23:31;;;;;;;18.85;16.58;;;19.50;55.30;;;;;;5031214;28;20475;-93
2021/04/21 08:25:58;;;;;;;21.90;16.25;;;20.20;50.40;;;;;;5033727;28;20081;-92
2021/04/21 08:28:31;;;;;;;21.35;18.00;;;20.40;49.40;;;;;;5024997;28;20045;-92
2021/04/21 08:31:00;;;;;;;20.00;16.80;;;20.40;49.80;;;;;;5016096;28;20103;-91
2021/04/21 08:33:30;;;;;;;20.05;17.30;;;20.80;48.90;;;;;;5033670;28;20617;-90
2021/04/21 08:35:59;;;;;;;18.38;15.85;;;20.30;48.40;;;;;;5034270;28;20366;-90
2021/04/21 08:38:26;;;;;;;19.85;14.52;;;20.80;48.20;;;;;;5035376;28;20132;-88
2021/04/21 08:40:52;;;;;;;18.27;13.50;;;20.90;46.40;;;;;;5031743;28;20309;-88
2021/04/21 08:43:20;;;;;;;13.32;11.20;;;20.50;48.30;;;;;;5010980;28;20068;-90
2021/04/21 08:45:48;;;;;;;15.30;12.20;;;20.30;48.00;;;;;;5028059;28;20367;-91
2021/04/21 08:48:16;;;;;;;13.55;11.32;;;21.00;44.60;;;;;;5029003;28;20103;-92
2021/04/21 08:50:44;;;;;;;13.73;12.23;;;21.20;43.20;;;;;;5032580;28;20147;-88
2021/04/21 08:53:12;;;;;;;17.70;12.48;;;21.40;42.90;;;;;;5025378;28;20135;-88
2021/04/21 08:55:40;;;;;;;18.20;14.32;;;21.80;42.50;;;;;;5022490;28;20038;-91
2021/04/21 08:58:10;;;;;;;18.08;15.38;;;22.00;43.90;;;;;;5032931;28;20053;-89
2021/04/21 09:00:39;;;;;;;16.60;13.63;;;21.90;44.20;;;;;;5031724;28;20384;-89
2021/04/21 09:03:06;;;;;;;16.02;13.73;;;21.80;45.80;;;;;;5011031;28;20063;-90
2021/04/21 09:05:32;;;;;;;16.17;13.95;;;21.80;44.70;;;;;;5011524;28;20053;-89
2021/04/21 09:08:02;;;;;;;21.33;14.80;;;22.10;43.40;;;;;;5012200;28;20072;-91
2021/04/21 09:10:30;;;;;;;18.67;13.43;;;21.60;43.00;;;;;;5034381;28;20041;-91
2021/04/21 09:12:59;;;;;;;15.40;12.68;;;21.50;46.20;;;;;;5032404;28;20037;-90
2021/04/21 09:15:26;;;;;;;17.13;12.80;;;21.30;47.10;;;;;;5000573;28;20041;-90
2021/04/21 09:17:56;;;;;;;19.70;13.77;;;21.80;41.80;;;;;;5014998;28;20081;-91
2021/04/21 09:20:25;;;;;;;17.65;12.85;;;21.70;42.90;;;;;;5007117;28;20160;-92
2021/04/21 09:23:14;;;;;;;15.68;12.68;;;21.70;42.30;;;;;;5033390;28;20083;-92
2021/04/21 09:25:53;;;;;;;16.20;13.10;;;22.10;41.70;;;;;;5026672;28;20063;-91
2021/04/21 09:28:25;;;;;;;14.75;11.65;;;22.40;42.20;;;;;;5027715;28;20099;-91
2021/04/21 09:30:57;;;;;;;13.32;11.88;;;22.80;40.80;;;;;;4997453;28;20549;-91
2021/04/21 09:33:30;;;;;;;14.70;12.35;;;23.50;39.60;;;;;;5033526;28;20057;-91
2021/04/21 09:35:58;;;;;;;13.90;12.10;;;23.20;39.20;;;;;;5033501;28;20117;-90
2021/04/21 09:38:27;;;;;;;14.30;11.55;;;23.60;40.70;;;;;;4987299;28;20049;-89
2021/04/21 09:40:58;;;;;;;14.43;12.40;;;23.50;38.20;;;;;;5029930;28;20323;-90
2021/04/21 09:43:34;;;;;;;12.85;11.50;;;23.60;39.90;;;;;;5026710;28;20069;-92
2021/04/21 09:46:14;;;;;;;11.68;10.38;;;23.60;39.70;;;;;;5029861;28;20084;-91
2021/04/21 09:48:43;;;;;;;11.20;9.13;;;24.00;37.10;;;;;;5016844;28;20042;-92
2021/04/21 09:51:16;;;;;;;10.90;9.70;;;24.50;40.00;;;;;;5033835;28;20132;-91
2021/04/21 09:53:50;;;;;;;12.60;10.82;;;24.40;36.90;;;;;;5034019;28;20088;-92
2021/04/21 09:56:21;;;;;;;13.13;10.65;;;23.50;37.30;;;;;;5012326;28;20151;-93
2021/04/21 09:58:55;;;;;;;;;;;23.70;37.60;;;;;;5040166;28;20089;-91
2021/04/21 10:01:33;;;;;;;11.18;9.82;;;24.20;35.90;;;;;;5014807;28;19921;-90
2021/04/21 10:04:06;;;;;;;10.45;9.32;;;24.30;34.80;;;;;;5033920;28;20479;-90
2021/04/21 10:06:55;;;;;;;10.98;9.63;;;24.20;34.40;;;;;;5020472;28;20049;-90
2021/04/21 10:09:40;;;;;;;13.32;9.10;;;23.80;34.10;;;;;;5010286;28;20320;-89
2021/04/21 10:12:18;;;;;;;10.60;9.48;;;24.20;33.50;;;;;;5031532;28;20138;-92
2021/04/21 10:15:14;;;;;;;10.70;9.15;;;24.10;34.50;;;;;;5032472;28;20041;-92
2021/04/21 10:17:42;;;;;;;10.80;8.38;;;24.30;33.00;;;;;;5016662;28;20136;-92
2021/04/21 10:20:11;;;;;;;10.25;8.30;;;24.50;33.60;;;;;;5020357;28;20450;-92
2021/04/21 10:22:39;;;;;;;11.02;9.23;;;24.80;33.10;;;;;;5015178;28;20053;-91
2021/04/21 10:25:31;;;;;;;9.65;8.65;;;24.00;34.00;;;;;;5030451;28;20508;-90
2021/04/21 10:27:58;;;;;;;12.98;10.15;;;23.20;36.30;;;;;;4997369;28;20054;-90
2021/04/21 10:30:29;;;;;;;10.27;9.18;;;23.00;36.00;;;;;;5022639;28;20109;-86
2021/04/21 10:32:58;;;;;;;9.98;8.95;;;22.90;34.40;;;;;;5016350;28;20049;-84
2021/04/21 10:35:26;;;;;;;9.73;8.68;;;23.30;34.60;;;;;;5030636;28;20064;-83
2021/04/21 10:37:55;;;;;;;12.02;9.18;;;23.20;33.80;;;;;;5009927;28;20147;-85
2021/04/21 10:40:27;;;;;;;12.57;9.10;;;22.30;35.60;;;;;;5006745;28;20175;-87
2021/04/21 10:43:03;;;;;;;14.60;12.15;;;22.00;38.60;;;;;;5021609;28;20053;-86
2021/04/21 10:45:50;;;;;;;14.35;11.45;;;22.10;42.00;;;;;;5006192;28;20065;-86
2021/04/21 10:48:38;;;;;;;17.45;12.13;;;22.50;41.20;;;;;;5002312;28;20094;-85
2021/04/21 10:51:40;;;;;;;12.45;9.23;;;23.30;40.40;;;;;;5014573;28;20051;-87
2021/04/21 10:54:10;;;;;;;14.23;9.93;;;24.70;38.90;;;;;;5029158;28;20037;-86
2021/04/21 10:56:37;;;;;;;14.25;10.75;;;25.20;36.10;;;;;;5013511;28;20094;-86
2021/04/21 10:59:04;;;;;;;13.68;10.73;;;24.30;36.90;;;;;;5012418;28;20119;-87
2021/04/21 11:01:39;;;;;;;12.75;11.07;;;24.20;37.80;;;;;;5037941;28;20041;-87
2021/04/21 11:04:06;;;;;;;13.68;11.50;;;24.50;37.70;;;;;;5018618;28;20057;-86
2021/04/21 11:06:47;;;;;;;15.40;11.73;;;25.50;35.40;;;;;;5013731;28;20057;-87
2021/04/21 11:09:18;;;;;;;14.25;11.15;;;25.70;34.70;;;;;;5012864;28;20045;-86
2021/04/21 11:11:49;;;;;;;13.30;10.98;;;26.00;32.50;;;;;;5016732;28;20041;-88
2021/04/21 11:14:40;;;;;;;13.80;10.53;;;25.90;33.60;;;;;;5016897;28;20120;-87
2021/04/21 11:17:07;;;;;;;15.27;11.53;;;24.60;35.10;;;;;;5026469;28;20046;-87
2021/04/21 11:19:41;;;;;;;14.18;10.73;;;24.10;34.70;;;;;;5029108;28;20309;-87
2021/04/21 11:22:29;;;;;;;12.27;10.20;;;24.90;33.40;;;;;;5016994;28;20041;-88
2021/04/21 11:25:22;;;;;;;10.93;9.68;;;25.50;33.40;;;;;;5009558;28;20186;-85
2021/04/21 11:27:48;;;;;;;12.52;10.55;;;25.50;35.70;;;;;;5016258;28;20084;-89
2021/04/21 11:30:32;;;;;;;14.65;10.63;;;24.70;36.60;;;;;;5033727;28;20049;-91
2021/04/21 11:33:53;;;;;;;13.85;9.35;;;24.60;36.10;;;;;;5024711;28;20045;-91
2021/04/21 11:37:08;;;;;;;14.45;10.07;;;24.90;37.80;;;;;;5019721;28;20052;-89
2021/04/21 11:39:57;;;;;;;;;;;;;;;;;;;;;
2021/04/21 11:42:45;;;;;;;10.85;8.82;;;26.80;31.10;;;;;;5041855;28;20045;-91
2021/04/21 11:45:15;;;;;;;10.50;8.68;;;27.90;30.00;;;;;;5019881;28;20107;-91
2021/04/21 11:48:04;;;;;;;10.15;9.05;;;28.80;29.90;;;;;;5018757;28;20977;-86
2021/04/21 11:50:35;;;;;;;11.70;8.95;;;28.20;30.60;;;;;;5038395;28;20057;-89
2021/04/21 11:53:09;;;;;;;11.25;9.02;;;27.80;31.50;;;;;;5036237;28;20045;-89
2021/04/21 11:55:50;;;;;;;10.75;8.90;;;28.60;28.80;;;;;;5019579;28;20041;-90
2021/04/21 11:58:27;;;;;;;10.35;9.23;;;28.50;29.00;;;;;;5010308;28;20057;-89
2021/04/21 12:01:13;;;;;;;11.15;8.57;;;28.30;28.20;;;;;;5016697;28;20053;-88
2021/04/21 12:03:44;;;;;;;11.15;8.10;;;28.00;29.20;;;;;;5016003;28;20128;-89
2021/04/21 12:06:19;;;;;;;12.07;9.25;;;28.30;29.00;;;;;;5019207;28;20386;-89
2021/04/21 12:08:53;;;;;;;9.82;7.97;;;28.10;28.50;;;;;;5014543;28;20049;-91
2021/04/21 12:11:26;;;;;;;14.27;7.22;;;28.50;29.50;;;;;;5016586;28;20144;-90
2021/04/21 12:13:56;;;;;;;10.57;7.00;;;29.60;28.00;;;;;;5031622;28;20046;-92
2021/04/21 12:16:25;;;;;;;9.38;7.25;;;29.90;30.80;;;;;;5015336;28;20046;-89
2021/04/21 12:18:58;;;;;;;8.85;7.22;;;31.30;26.30;;;;;;5011282;28;20057;-90
2021/04/21 12:21:35;;;;;;;7.88;7.07;;;30.50;25.50;;;;;;5031435;28;20042;-90
2021/04/21 12:24:11;;;;;;;11.68;8.65;;;28.20;28.20;;;;;;5013490;28;20131;-89
2021/04/21 12:26:45;;;;;;;10.13;8.52;;;25.20;31.50;;;;;;5018779;28;20133;-90
2021/04/21 12:29:20;;;;;;;14.20;8.60;;;24.00;32.70;;;;;;5012933;28;20050;-89
2021/04/21 12:31:50;;;;;;;11.73;8.85;;;23.10;35.30;;;;;;5018392;28;20055;-91
2021/04/21 12:34:22;;;;;;;12.73;8.75;;;22.60;36.30;;;;;;5015302;28;20061;-90
2021/04/21 12:36:49;;;;;;;12.73;9.07;;;22.00;37.50;;;;;;5019165;28;20374;-91
2021/04/21 12:39:22;;;;;;;14.90;10.73;;;21.30;37.90;;;;;;5011699;28;20063;-89
2021/04/21 12:41:52;;;;;;;11.70;9.80;;;20.40;39.10;;;;;;5028589;28;20466;-87
2021/04/21 12:44:30;;;;;;;14.85;10.30;;;19.70;40.80;;;;;;5004872;28;20049;-89
2021/04/21 12:47:08;;;;;;;11.52;9.27;;;19.30;41.90;;;;;;5020266;28;20328;-87
2021/04/21 12:49:47;;;;;;;18.20;11.90;;;19.00;42.70;;;;;;5017159;28;20462;-90
2021/04/21 12:52:32;;;;;;;14.63;10.90;;;18.60;44.30;;;;;;5015780;28;20104;-91
2021/04/21 12:55:00;;;;;;;15.48;11.00;;;18.40;45.10;;;;;;5004596;28;20041;-91
2021/04/21 12:57:26;;;;;;;13.95;11.18;;;18.40;44.10;;;;;;5027458;28;20137;-88
2021/04/21 12:59:58;;;;;;;14.55;11.75;;;18.50;45.00;;;;;;4993070;28;20049;-89
2021/04/21 13:02:47;;;;;;;14.95;11.95;;;18.40;43.30;;;;;;5028055;28;20144;-88
2021/04/21 13:05:15;;;;;;;13.20;11.23;;;18.30;43.80;;;;;;5021565;28;20135;-90
2021/04/21 13:07:42;;;;;;;12.68;9.98;;;18.00;44.50;;;;;;5017137;28;20132;-89
2021/04/21 13:10:16;;;;;;;12.70;10.07;;;18.00;44.40;;;;;;5012510;28;20068;-88
2021/04/21 13:12:48;;;;;;;18.70;11.45;;;17.70;46.30;;;;;;5017883;28;20347;-89
2021/04/21 13:15:32;;;;;;;21.98;15.38;;;17.70;50.30;;;;;;5023858;28;20053;-91
2021/04/21 13:18:35;;;;;;;20.55;15.90;;;17.10;63.70;;;;;;5015811;28;20059;-88
2021/04/21 13:21:07;;;;;;;20.67;16.45;;;16.20;72.60;;;;;;5015545;28;20041;-87
2021/04/21 13:23:42;;;;;;;17.38;13.82;;;15.40;94.10;;;;;;5013367;28;20059;-87
2021/04/21 13:26:23;;;;;;;20.77;13.23;;;14.40;91.10;;;;;;5033742;28;20119;-87